Time;durP1;ratioP1;P1;durP2;ratioP2;P2;SDS_P1;SDS_P2;PMS_P1;PMS_P2;Temp;Humidity;BMP_temperature;BMP_pressure;BME280_temperature;BME280_humidity;BME280_pressure;Samples;Min_cycle;Max_cycle;Signal;HPM_P1;HPM_P2
2022/04/06 00:00:12;;;;;;;2.70;2.70;;;;;;;;;;5072462;28;20418;-73
2022/04/06 00:02:39;;;;;;;2.77;2.50;;;;;;;;;;5073306;28;20464;-74
2022/04/06 00:05:06;;;;;;;2.33;2.23;;;;;;;;;;5072456;28;20472;-74
2022/04/06 00:07:32;;;;;;;2.10;2.07;;;;;;;;;;5072552;28;20893;-74
2022/04/06 00:09:57;;;;;;;2.17;2.13;;;;;;;;;;5072802;28;20435;-73
2022/04/06 00:12:23;;;;;;;2.30;2.30;;;;;;;;;;5072704;28;20424;-74
2022/04/06 00:14:49;;;;;;;2.63;2.57;;;;;;;;;;5072439;28;20421;-74
2022/04/06 00:17:15;;;;;;;3.03;2.30;;;;;;;;;;5072313;28;21009;-73
2022/04/06 00:19:41;;;;;;;2.60;2.50;;;;;;;;;;5072699;28;20757;-73
2022/04/06 00:22:07;;;;;;;2.53;2.30;;;;;;;;;;5072220;28;20440;-73
2022/04/06 00:24:33;;;;;;;3.60;3.07;;;;;;;;;;5072332;28;20409;-74
2022/04/06 00:26:59;;;;;;;2.27;2.17;;;;;;;;;;5054420;28;20434;-73
2022/04/06 00:29:25;;;;;;;2.40;2.40;;;;;;;;;;5073319;28;20809;-73
2022/04/06 00:31:51;;;;;;;2.40;2.20;;;;;;;;;;5076025;28;20830;-73
2022/04/06 00:34:17;;;;;;;2.40;2.40;;;;;;;;;;5075689;28;20416;-73
2022/04/06 00:36:44;;;;;;;2.10;2.00;;;;;;;;;;5075867;28;20414;-73
2022/04/06 00:39:10;;;;;;;2.40;2.30;;;;;;;;;;5076188;28;20440;-74
2022/04/06 00:41:36;;;;;;;2.77;2.50;;;;;;;;;;5076028;28;20889;-73
2022/04/06 00:44:12;;;;;;;5.33;3.17;;;;;;;;;;5075947;28;20436;-73
2022/04/06 00:46:39;;;;;;;3.00;2.90;;;;;;;;;;5076143;28;20464;-74
2022/04/06 00:49:11;;;;;;;2.10;2.00;;;;;;;;;;5075729;28;20422;-77
2022/04/06 00:51:37;;;;;;;2.57;2.37;;;;;;;;;;5075600;28;20901;-74
2022/04/06 00:54:03;;;;;;;2.60;2.40;;;;;;;;;;5075853;28;20413;-73
2022/04/06 00:56:29;;;;;;;2.37;2.37;;;;;;;;;;5075575;28;20948;-74
2022/04/06 00:58:55;;;;;;;3.30;3.10;;;;;;;;;;5076170;28;20401;-74
2022/04/06 01:01:21;;;;;;;2.40;2.30;;;;;;;;;;5057404;28;20480;-73
2022/04/06 01:03:47;;;;;;;2.30;2.30;;;;;;;;;;5075329;28;20901;-73
2022/04/06 01:06:13;;;;;;;3.00;2.60;;;;;;;;;;5075306;28;20543;-73
2022/04/06 01:08:39;;;;;;;3.17;2.97;;;;;;;;;;5075964;28;20455;-73
2022/04/06 01:11:05;;;;;;;2.20;2.20;;;;;;;;;;5075290;28;20782;-73
2022/04/06 01:13:31;;;;;;;2.60;2.50;;;;;;;;;;5075166;28;20894;-73
2022/04/06 01:15:57;;;;;;;2.50;2.30;;;;;;;;;;5075113;28;20966;-74
2022/04/06 01:18:23;;;;;;;2.60;2.50;;;;;;;;;;5075399;28;20421;-73
2022/04/06 01:20:49;;;;;;;2.60;2.40;;;;;;;;;;5075479;28;20421;-73
2022/04/06 01:23:15;;;;;;;2.30;2.10;;;;;;;;;;5076030;28;20517;-73
2022/04/06 01:25:42;;;;;;;2.40;2.30;;;;;;;;;;5074820;28;20469;-73
2022/04/06 01:28:08;;;;;;;2.83;2.63;;;;;;;;;;5075220;28;20916;-74
2022/04/06 01:30:34;;;;;;;2.33;2.33;;;;;;;;;;5074937;28;20444;-73
2022/04/06 01:33:05;;;;;;;5.50;2.73;;;;;;;;;;5074726;28;20965;-73
2022/04/06 01:35:31;;;;;;;2.20;2.20;;;;;;;;;;5074964;28;20386;-74
2022/04/06 01:37:57;;;;;;;2.07;2.07;;;;;;;;;;5074833;28;20448;-74
2022/04/06 01:40:26;;;;;;;2.33;2.27;;;;;;;;;;5074542;28;20441;-73
2022/04/06 01:42:51;;;;;;;3.17;3.07;;;;;;;;;;5074130;28;20453;-73
2022/04/06 01:45:17;;;;;;;2.20;2.20;;;;;;;;;;5074650;28;20497;-74
2022/04/06 01:47:43;;;;;;;2.30;2.30;;;;;;;;;;5074507;28;20420;-74
2022/04/06 01:52:54;;;;;;;3.17;2.60;;;;;;;;;;5074920;28;20405;-73
2022/04/06 01:55:20;;;;;;;2.67;2.57;;;;;;;;;;5074630;28;20902;-74
2022/04/06 01:57:46;;;;;;;4.20;2.53;;;;;;;;;;5074280;28;20421;-73
2022/04/06 02:00:15;;;;;;;2.47;2.47;;;;;;;;;;5074534;28;20410;-73
2022/04/06 02:02:41;;;;;;;3.57;2.93;;;;;;;;;;5074239;28;20820;-73
2022/04/06 02:05:07;;;;;;;6.03;2.37;;;;;;;;;;5074325;28;20548;-74
2022/04/06 02:07:33;;;;;;;3.23;3.10;;;;;;;;;;5074106;28;20412;-73
2022/04/06 02:10:00;;;;;;;3.67;2.57;;;;;;;;;;5074397;28;20426;-74
2022/04/06 02:12:26;;;;;;;1.93;1.93;;;;;;;;;;5074264;28;20474;-73
2022/04/06 02:14:53;;;;;;;2.83;2.67;;;;;;;;;;5074281;28;20828;-73
2022/04/06 02:17:19;;;;;;;3.07;2.87;;;;;;;;;;5074263;28;20470;-76
2022/04/06 02:19:45;;;;;;;2.93;2.63;;;;;;;;;;5073765;28;20917;-73
2022/04/06 02:22:11;;;;;;;2.50;2.50;;;;;;;;;;5074080;28;20423;-73
2022/04/06 02:24:38;;;;;;;2.27;2.27;;;;;;;;;;5056205;28;20782;-74
2022/04/06 02:27:07;;;;;;;2.20;2.20;;;;;;;;;;5073993;28;20422;-73
2022/04/06 02:29:34;;;;;;;3.63;2.23;;;;;;;;;;5073959;28;20492;-74
2022/04/06 02:32:00;;;;;;;2.53;2.43;;;;;;;;;;5073672;28;20461;-73
2022/04/06 02:34:26;;;;;;;32.80;5.73;;;;;;;;;;5073586;28;20498;-73
2022/04/06 02:36:52;;;;;;;2.90;2.80;;;;;;;;;;5074134;28;20420;-73
2022/04/06 02:39:18;;;;;;;2.80;2.70;;;;;;;;;;5073911;28;20471;-74
2022/04/06 02:41:44;;;;;;;2.80;2.70;;;;;;;;;;5073449;28;20447;-73
2022/04/06 02:44:10;;;;;;;3.00;2.90;;;;;;;;;;5073498;28;20520;-74
2022/04/06 02:46:36;;;;;;;2.57;2.57;;;;;;;;;;5073569;28;21007;-73
2022/04/06 02:49:02;;;;;;;2.60;2.60;;;;;;;;;;5073306;28;20421;-73
2022/04/06 02:51:28;;;;;;;3.47;3.27;;;;;;;;;;5073672;28;20470;-74
2022/04/06 02:53:54;;;;;;;2.33;2.33;;;;;;;;;;5073110;28;20756;-73
2022/04/06 02:56:20;;;;;;;2.97;2.87;;;;;;;;;;5073204;28;20417;-74
2022/04/06 02:58:46;;;;;;;3.23;3.10;;;;;;;;;;5073600;28;20414;-74
2022/04/06 03:01:11;;;;;;;2.60;2.53;;;;;;;;;;5073276;28;20420;-74
2022/04/06 03:03:37;;;;;;;3.53;3.40;;;;;;;;;;5073372;28;20468;-73
2022/04/06 03:06:05;;;;;;;3.43;3.20;;;;;;;;;;5073618;28;20972;-74
2022/04/06 03:08:31;;;;;;;3.13;2.47;;;;;;;;;;5073711;28;20416;-74
2022/04/06 03:10:59;;;;;;;2.90;2.80;;;;;;;;;;5073350;28;20428;-74
2022/04/06 03:16:28;;;;;;;4.03;3.53;;;;;;;;;;5073399;28;20400;-74
2022/04/06 03:18:54;;;;;;;2.77;2.67;;;;;;;;;;5072968;28;20422;-74
2022/04/06 03:21:20;;;;;;;3.20;3.10;;;;;;;;;;5073340;28;20418;-74
2022/04/06 03:23:46;;;;;;;3.07;2.97;;;;;;;;;;5073330;28;20736;-74
2022/04/06 03:26:12;;;;;;;4.63;4.03;;;;;;;;;;5072879;28;20826;-73
2022/04/06 03:28:38;;;;;;;2.93;2.70;;;;;;;;;;5073381;28;20460;-74
2022/04/06 03:31:05;;;;;;;4.40;3.30;;;;;;;;;;5072738;28;20779;-74
2022/04/06 03:33:31;;;;;;;3.07;2.97;;;;;;;;;;5073157;28;20485;-73
2022/04/06 03:35:57;;;;;;;3.40;3.20;;;;;;;;;;5073441;28;20463;-73
2022/04/06 03:38:23;;;;;;;3.80;3.43;;;;;;;;;;5072797;28;20409;-73
2022/04/06 03:40:49;;;;;;;3.43;3.10;;;;;;;;;;5072849;28;20890;-74
2022/04/06 03:43:15;;;;;;;3.70;3.50;;;;;;;;;;5072798;28;20421;-73
2022/04/06 03:45:42;;;;;;;3.67;3.50;;;;;;;;;;5072875;28;20526;-73
2022/04/06 03:48:09;;;;;;;3.10;2.90;;;;;;;;;;5072804;28;20785;-74
2022/04/06 03:50:35;;;;;;;3.53;3.17;;;;;;;;;;5073065;28;20436;-73
2022/04/06 03:53:01;;;;;;;3.60;3.50;;;;;;;;;;5072816;28;20864;-73
2022/04/06 03:55:27;;;;;;;3.13;3.03;;;;;;;;;;5072670;28;20434;-73
2022/04/06 03:57:53;;;;;;;4.10;3.80;;;;;;;;;;5072906;28;20470;-74
2022/04/06 04:00:19;;;;;;;3.40;3.10;;;;;;;;;;5072851;28;20516;-73
2022/04/06 04:02:46;;;;;;;2.97;2.87;;;;;;;;;;5072934;28;20425;-74
2022/04/06 04:05:12;;;;;;;2.53;2.53;;;;;;;;;;5074501;28;20468;-74
2022/04/06 04:07:38;;;;;;;3.43;3.23;;;;;;;;;;5076632;28;20563;-74
2022/04/06 04:10:14;;;;;;;3.30;3.20;;;;;;;;;;5077088;28;20964;-74
2022/04/06 04:12:40;;;;;;;5.03;3.57;;;;;;;;;;5076740;28;20455;-73
2022/04/06 04:15:06;;;;;;;3.30;3.10;;;;;;;;;;5076546;28;20417;-74
2022/04/06 04:17:32;;;;;;;3.07;2.90;;;;;;;;;;5076238;28;20509;-74
2022/04/06 04:19:58;;;;;;;3.13;3.03;;;;;;;;;;5076420;28;20405;-74
2022/04/06 04:22:24;;;;;;;2.83;2.63;;;;;;;;;;5076210;28;20769;-76
2022/04/06 04:24:50;;;;;;;2.70;2.60;;;;;;;;;;5076281;28;20839;-73
2022/04/06 04:27:16;;;;;;;2.57;2.57;;;;;;;;;;5076235;28;20449;-73
2022/04/06 04:29:42;;;;;;;3.70;2.90;;;;;;;;;;5076302;28;20417;-73
2022/04/06 04:32:10;;;;;;;3.00;2.90;;;;;;;;;;5075945;28;20554;-74
2022/04/06 04:34:36;;;;;;;5.83;3.50;;;;;;;;;;5075926;28;20425;-74
2022/04/06 04:37:02;;;;;;;4.27;3.90;;;;;;;;;;5058010;28;20515;-74
2022/04/06 04:39:28;;;;;;;3.93;3.60;;;;;;;;;;5075903;28;20417;-74
2022/04/06 04:41:54;;;;;;;3.57;3.37;;;;;;;;;;5076151;28;20417;-73
2022/04/06 04:44:20;;;;;;;3.80;3.60;;;;;;;;;;5075232;28;20754;-73
2022/04/06 04:46:46;;;;;;;2.77;2.60;;;;;;;;;;5075701;28;20211;-74
2022/04/06 04:49:12;;;;;;;3.10;3.00;;;;;;;;;;5075939;28;20883;-74
2022/04/06 04:51:38;;;;;;;3.63;3.10;;;;;;;;;;5075904;28;20432;-74
2022/04/06 04:54:04;;;;;;;4.73;4.40;;;;;;;;;;5075918;28;20413;-74
2022/04/06 04:56:32;;;;;;;3.30;3.10;;;;;;;;;;5075767;28;20753;-74
2022/04/06 04:58:58;;;;;;;3.60;3.40;;;;;;;;;;5075554;28;20893;-73
2022/04/06 05:01:24;;;;;;;3.17;3.07;;;;;;;;;;5075755;28;20444;-74
2022/04/06 05:03:51;;;;;;;4.00;3.70;;;;;;;;;;5075595;28;20406;-74
2022/04/06 05:06:17;;;;;;;2.63;2.53;;;;;;;;;;5075542;28;20469;-73
2022/04/06 05:08:43;;;;;;;3.67;3.13;;;;;;;;;;5075661;28;20470;-74
2022/04/06 05:11:10;;;;;;;3.67;2.80;;;;;;;;;;5075580;28;20426;-73
2022/04/06 05:13:37;;;;;;;3.20;3.10;;;;;;;;;;5075533;28;20413;-74
2022/04/06 05:16:04;;;;;;;2.50;2.30;;;;;;;;;;5074066;28;20422;-74
2022/04/06 05:18:29;;;;;;;2.57;2.47;;;;;;;;;;5075213;28;20446;-72
2022/04/06 05:20:56;;;;;;;2.80;2.70;;;;;;;;;;5075963;28;20469;-74
2022/04/06 05:26:25;;;;;;;3.20;3.00;;;;;;;;;;5075030;28;20460;-74
2022/04/06 05:28:51;;;;;;;2.70;2.50;;;;;;;;;;5075015;28;20441;-77
2022/04/06 05:31:17;;;;;;;2.53;2.50;;;;;;;;;;5075229;28;20487;-74
2022/04/06 05:33:44;;;;;;;2.90;2.67;;;;;;;;;;5075079;28;20758;-74
2022/04/06 05:36:10;;;;;;;10.63;2.77;;;;;;;;;;5074791;28;20802;-74
2022/04/06 05:38:36;;;;;;;3.63;3.37;;;;;;;;;;5074765;28;20442;-75
2022/04/06 05:41:03;;;;;;;3.33;2.83;;;;;;;;;;5074774;28;20777;-74
2022/04/06 05:43:29;;;;;;;2.90;2.80;;;;;;;;;;5074640;28;20495;-74
2022/04/06 05:45:55;;;;;;;2.50;2.40;;;;;;;;;;5074637;28;20477;-74
2022/04/06 05:48:21;;;;;;;3.30;3.10;;;;;;;;;;5074497;28;20750;-74
2022/04/06 05:50:47;;;;;;;2.60;2.40;;;;;;;;;;5074780;28;20421;-75
2022/04/06 05:56:17;;;;;;;1.90;1.90;;;;;;;;;;5074342;28;20912;-74
2022/04/06 05:58:43;;;;;;;2.50;2.40;;;;;;;;;;5056348;28;20422;-74
2022/04/06 06:01:09;;;;;;;3.13;2.83;;;;;;;;;;5074259;28;20441;-75
2022/04/06 06:03:35;;;;;;;2.60;2.60;;;;;;;;;;5074000;28;20475;-74
2022/04/06 06:06:02;;;;;;;2.60;2.50;;;;;;;;;;5074001;28;20468;-74
2022/04/06 06:08:27;;;;;;;2.87;2.57;;;;;;;;;;5075003;28;20747;-74
2022/04/06 06:10:54;;;;;;;2.90;2.80;;;;;;;;;;5074291;28;20922;-75
2022/04/06 06:16:24;;;;;;;2.50;2.40;;;;;;;;;;5073810;28;20749;-74
2022/04/06 06:18:50;;;;;;;2.83;2.60;;;;;;;;;;5074408;28;20916;-74
2022/04/06 06:21:16;;;;;;;5.70;3.10;;;;;;;;;;5074171;28;20413;-74
2022/04/06 06:23:42;;;;;;;5.73;5.30;;;;;;;;;;5073734;28;20421;-74
2022/04/06 06:26:08;;;;;;;9.10;8.40;;;;;;;;;;5073583;28;20469;-74
2022/04/06 06:28:35;;;;;;;12.87;11.87;;;;;;;;;;5073447;28;20452;-74
2022/04/06 06:31:01;;;;;;;15.53;13.53;;;;;;;;;;5073637;28;20405;-73
2022/04/06 06:33:27;;;;;;;13.60;12.20;;;;;;;;;;5073871;28;20543;-73
2022/04/06 06:35:53;;;;;;;13.17;11.97;;;;;;;;;;5073521;28;20885;-74
2022/04/06 06:38:19;;;;;;;5.47;5.07;;;;;;;;;;5073383;28;20593;-74
2022/04/06 06:40:46;;;;;;;5.17;4.90;;;;;;;;;;5073835;28;20536;-73
2022/04/06 06:43:12;;;;;;;3.70;3.50;;;;;;;;;;5073459;28;20903;-74
2022/04/06 06:45:38;;;;;;;3.03;2.83;;;;;;;;;;5055289;28;20511;-74
2022/04/06 06:48:04;;;;;;;2.30;2.10;;;;;;;;;;5055527;28;20422;-74
2022/04/06 06:50:30;;;;;;;1.83;1.77;;;;;;;;;;5056284;28;20789;-74
2022/04/06 06:52:56;;;;;;;2.00;2.00;;;;;;;;;;5073336;28;20498;-74
2022/04/06 06:55:22;;;;;;;1.77;1.47;;;;;;;;;;5073238;28;20979;-73
2022/04/06 06:57:49;;;;;;;6.10;2.37;;;;;;;;;;5073204;28;20414;-70
2022/04/06 07:00:15;;;;;;;1.90;1.80;;;;;;;;;;5073456;28;20409;-75
2022/04/06 07:02:42;;;;;;;7.70;2.03;;;;;;;;;;5073623;28;20496;-74
2022/04/06 07:05:09;;;;;;;1.40;1.40;;;;;;;;;;5073056;28;20461;-75
2022/04/06 07:07:47;;;;;;;1.43;1.43;;;;;;;;;;5073232;28;20474;-75
2022/04/06 07:10:13;;;;;;;1.67;1.67;;;;;;;;;;5073346;28;20443;-74
2022/04/06 07:12:39;;;;;;;1.63;1.63;;;;;;;;;;5073345;28;20812;-74
2022/04/06 07:15:05;;;;;;;2.00;1.90;;;;;;;;;;5072909;28;20428;-74
2022/04/06 07:17:31;;;;;;;1.53;1.53;;;;;;;;;;5072903;28;20420;-74
2022/04/06 07:19:57;;;;;;;2.03;1.80;;;;;;;;;;5072977;28;20413;-73
2022/04/06 07:22:23;;;;;;;2.40;1.57;;;;;;;;;;5054903;28;20430;-74
2022/04/06 07:24:49;;;;;;;1.40;1.30;;;;;;;;;;5072922;28;20517;-74
2022/04/06 07:27:16;;;;;;;6.73;1.10;;;;;;;;;;5072782;28;20821;-74
2022/04/06 07:29:42;;;;;;;1.80;1.80;;;;;;;;;;5072903;28;20474;-74
2022/04/06 07:32:09;;;;;;;1.20;1.20;;;;;;;;;;5054375;28;20472;-74
2022/04/06 07:34:35;;;;;;;4.90;1.77;;;;;;;;;;5072239;28;20449;-74
2022/04/06 07:37:01;;;;;;;4.67;2.17;;;;;;;;;;5072765;28;20424;-75
2022/04/06 07:39:27;;;;;;;1.40;1.30;;;;;;;;;;5073293;28;20425;-73
2022/04/06 07:41:56;;;;;;;5.00;2.03;;;;;;;;;;5077596;28;20421;-73
2022/04/06 07:44:25;;;;;;;5.03;3.47;;;;;;;;;;5076733;28;20418;-78
2022/04/06 07:46:52;;;;;;;2.37;2.27;;;;;;;;;;5077287;28;20468;-77
2022/04/06 07:49:18;;;;;;;1.70;1.60;;;;;;;;;;5076535;28;20412;-76
2022/04/06 07:51:45;;;;;;;1.70;1.60;;;;;;;;;;5076963;28;20428;-77
2022/04/06 07:54:11;;;;;;;1.37;1.37;;;;;;;;;;5076853;28;20409;-77
2022/04/06 07:56:39;;;;;;;1.67;1.57;;;;;;;;;;5076763;28;20421;-77
2022/04/06 07:59:05;;;;;;;1.30;1.30;;;;;;;;;;5076919;28;20417;-76
2022/04/06 08:01:31;;;;;;;1.53;1.53;;;;;;;;;;5076292;28;20778;-78
2022/04/06 08:03:57;;;;;;;1.70;1.60;;;;;;;;;;5076460;28;20512;-78
2022/04/06 08:06:24;;;;;;;1.93;1.93;;;;;;;;;;5076701;28;20560;-77
2022/04/06 08:08:51;;;;;;;1.63;1.63;;;;;;;;;;5076529;28;20806;-73
2022/04/06 08:11:18;;;;;;;1.90;1.30;;;;;;;;;;5076481;28;20508;-74
2022/04/06 08:13:44;;;;;;;1.50;1.50;;;;;;;;;;5076492;28;20417;-77
2022/04/06 08:16:10;;;;;;;2.20;1.40;;;;;;;;;;5076065;28;20475;-77
2022/04/06 08:18:36;;;;;;;1.70;1.67;;;;;;;;;;5076372;28;20516;-74
2022/04/06 08:21:04;;;;;;;1.90;1.80;;;;;;;;;;5076285;28;20468;-75
2022/04/06 08:23:30;;;;;;;1.70;1.70;;;;;;;;;;5076134;28;20436;-75
2022/04/06 08:25:56;;;;;;;1.57;1.57;;;;;;;;;;5059121;28;20477;-74
2022/04/06 08:28:22;;;;;;;1.80;1.80;;;;;;;;;;5076296;28;20889;-75
2022/04/06 08:30:48;;;;;;;4.20;1.97;;;;;;;;;;5076268;28;20413;-75
2022/04/06 08:33:15;;;;;;;1.30;1.30;;;;;;;;;;5075762;28;20457;-77
2022/04/06 08:35:42;;;;;;;1.60;1.60;;;;;;;;;;5075742;28;20436;-77
2022/04/06 08:38:10;;;;;;;2.90;2.80;;;;;;;;;;5075865;28;20971;-75
2022/04/06 08:40:37;;;;;;;1.77;1.63;;;;;;;;;;5075958;28;20428;-74
2022/04/06 08:43:04;;;;;;;1.60;1.50;;;;;;;;;;5075805;28;20903;-75
2022/04/06 08:45:32;;;;;;;11.87;3.63;;;;;;;;;;5075526;28;20567;-77
2022/04/06 08:47:58;;;;;;;1.13;0.90;;;;;;;;;;5074508;28;20905;-73
2022/04/06 08:50:27;;;;;;;1.37;1.37;;;;;;;;;;5075022;28;20449;-75
2022/04/06 08:52:55;;;;;;;1.10;1.10;;;;;;;;;;5075787;28;20472;-78
2022/04/06 08:55:21;;;;;;;1.73;1.73;;;;;;;;;;5075775;28;20444;-75
2022/04/06 08:57:47;;;;;;;5.50;1.57;;;;;;;;;;5075663;28;20410;-75
2022/04/06 09:00:15;;;;;;;2.63;0.93;;;;;;;;;;5057601;28;20417;-76
2022/04/06 09:02:42;;;;;;;1.70;1.60;;;;;;;;;;5075865;28;20437;-75
2022/04/06 09:05:09;;;;;;;0.87;0.87;;;;;;;;;;5075422;28;20425;-75
2022/04/06 09:07:36;;;;;;;2.17;2.17;;;;;;;;;;5075574;28;20785;-75
2022/04/06 09:10:02;;;;;;;2.43;2.37;;;;;;;;;;5075359;28;20504;-75
2022/04/06 09:12:29;;;;;;;2.70;2.60;;;;;;;;;;5075632;28;20516;-78
2022/04/06 09:15:05;;;;;;;0.97;0.97;;;;;;;;;;5075203;28;20417;-75
2022/04/06 09:17:31;;;;;;;1.00;1.00;;;;;;;;;;5075161;28;20775;-74
2022/04/06 09:19:59;;;;;;;2.03;1.10;;;;;;;;;;5075368;28;20413;-75
2022/04/06 09:22:25;;;;;;;0.60;0.60;;;;;;;;;;5057010;28;20429;-78
2022/04/06 09:25:00;;;;;;;0.60;0.60;;;;;;;;;;5074991;28;20422;-75
2022/04/06 09:27:33;;;;;;;1.87;1.60;;;;;;;;;;5075305;28;20832;-75
2022/04/06 09:29:59;;;;;;;0.90;0.90;;;;;;;;;;5075220;28;20405;-75
2022/04/06 09:32:25;;;;;;;1.03;1.03;;;;;;;;;;5074645;28;21048;-75
2022/04/06 09:34:51;;;;;;;1.43;0.97;;;;;;;;;;5074782;28;20414;-74
2022/04/06 09:37:24;;;;;;;1.03;1.03;;;;;;;;;;5074929;28;20782;-74
2022/04/06 09:39:50;;;;;;;0.67;0.67;;;;;;;;;;5074952;28;20437;-75
2022/04/06 09:42:24;;;;;;;0.87;0.87;;;;;;;;;;5073914;28;20422;-75
2022/04/06 09:47:39;;;;;;;2.77;2.67;;;;;;;;;;5075233;28;20451;-75
2022/04/06 09:50:14;;;;;;;0.83;0.83;;;;;;;;;;5074646;28;20466;-75
2022/04/06 09:52:41;;;;;;;3.90;1.10;;;;;;;;;;5074547;28;20474;-75
2022/04/06 09:55:08;;;;;;;2.00;1.90;;;;;;;;;;5074476;28;20421;-75
2022/04/06 09:57:39;;;;;;;3.23;2.27;;;;;;;;;;5074267;28;20508;-74
2022/04/06 10:00:06;;;;;;;9.70;2.07;;;;;;;;;;5074751;28;20807;-75
2022/04/06 10:02:33;;;;;;;5.00;4.50;;;;;;;;;;5073779;28;20763;-75
2022/04/06 10:05:00;;;;;;;1.63;1.63;;;;;;;;;;5074256;28;20572;-75
2022/04/06 10:07:26;;;;;;;2.00;2.00;;;;;;;;;;5074101;28;20806;-75
2022/04/06 10:09:52;;;;;;;1.30;1.30;;;;;;;;;;5073966;28;20414;-75
2022/04/06 10:12:18;;;;;;;2.20;1.23;;;;;;;;;;5074272;28;20504;-76
2022/04/06 10:14:44;;;;;;;2.03;1.80;;;;;;;;;;5074325;28;20417;-75
2022/04/06 10:17:11;;;;;;;2.30;1.43;;;;;;;;;;5073947;28;20959;-74
2022/04/06 10:19:40;;;;;;;1.30;1.00;;;;;;;;;;5073860;28;20436;-75
2022/04/06 10:22:10;;;;;;;1.07;0.80;;;;;;;;;;5073855;28;20468;-76
2022/04/06 10:24:37;;;;;;;1.20;1.20;;;;;;;;;;5074134;28;20540;-75
2022/04/06 10:27:03;;;;;;;0.90;0.90;;;;;;;;;;5073979;28;20480;-76
2022/04/06 10:29:28;;;;;;;0.80;0.80;;;;;;;;;;5073965;28;20814;-76
2022/04/06 10:31:54;;;;;;;2.10;0.83;;;;;;;;;;5073690;28;20469;-74
2022/04/06 10:34:25;;;;;;;1.37;1.27;;;;;;;;;;5073363;28;20778;-76
2022/04/06 10:37:03;;;;;;;1.50;1.50;;;;;;;;;;5074014;28;20763;-74
2022/04/06 10:39:29;;;;;;;4.30;4.20;;;;;;;;;;5073458;28;20417;-75
2022/04/06 10:42:14;;;;;;;2.03;2.03;;;;;;;;;;5073603;28;20409;-75
2022/04/06 10:44:40;;;;;;;1.27;1.27;;;;;;;;;;5073758;28;20417;-75
2022/04/06 10:47:10;;;;;;;22.77;11.47;;;;;;;;;;5073523;28;20473;-74
2022/04/06 10:49:36;;;;;;;3.73;3.47;;;;;;;;;;5055226;28;20429;-75
2022/04/06 10:52:26;;;;;;;3.33;3.23;;;;;;;;;;5055498;28;20430;-75
2022/04/06 10:54:52;;;;;;;4.93;4.53;;;;;;;;;;5073659;28;20413;-74
2022/04/06 10:57:19;;;;;;;4.20;4.00;;;;;;;;;;5074252;28;20433;-75
2022/04/06 11:00:05;;;;;;;1.60;1.60;;;;;;;;;;5073481;28;20491;-74
2022/04/06 11:02:35;;;;;;;8.23;7.43;;;;;;;;;;5073067;28;20414;-74
2022/04/06 11:05:02;;;;;;;3.60;2.53;;;;;;;;;;5073061;28;20425;-74
2022/04/06 11:10:22;;;;;;;5.80;5.37;;;;;;;;;;5073173;28;20409;-75
2022/04/06 11:13:08;;;;;;;3.70;3.60;;;;;;;;;;5073287;28;20508;-74
2022/04/06 11:15:37;;;;;;;3.70;3.50;;;;;;;;;;5073159;28;20418;-74
2022/04/06 11:18:04;;;;;;;13.00;5.03;;;;;;;;;;5073137;28;20414;-75
2022/04/06 11:20:31;;;;;;;3.13;2.67;;;;;;;;;;5073474;28;20414;-75
2022/04/06 11:22:58;;;;;;;3.10;2.90;;;;;;;;;;5073333;28;20620;-75
2022/04/06 11:25:28;;;;;;;2.63;2.63;;;;;;;;;;5073133;28;20461;-75
2022/04/06 11:27:55;;;;;;;6.23;5.70;;;;;;;;;;5072941;28;20424;-76
2022/04/06 11:30:22;;;;;;;5.10;4.83;;;;;;;;;;5073236;28;20771;-74
2022/04/06 11:32:59;;;;;;;2.90;2.80;;;;;;;;;;5072639;28;20473;-74
2022/04/06 11:35:35;;;;;;;5.00;4.80;;;;;;;;;;5073204;28;20425;-74
2022/04/06 11:38:05;;;;;;;3.13;3.03;;;;;;;;;;5072768;28;20416;-74
2022/04/06 11:40:31;;;;;;;15.37;10.17;;;;;;;;;;5072842;28;20894;-74
2022/04/06 11:42:58;;;;;;;4.13;3.83;;;;;;;;;;5073032;28;20406;-74
2022/04/06 11:45:26;;;;;;;2.70;2.50;;;;;;;;;;5072985;28;20464;-74
2022/04/06 11:47:53;;;;;;;6.57;4.20;;;;;;;;;;5073267;28;20746;-75
2022/04/06 11:50:19;;;;;;;8.47;6.27;;;;;;;;;;5072814;28;20412;-75
2022/04/06 11:52:45;;;;;;;17.60;8.13;;;;;;;;;;5072657;28;20422;-75
2022/04/06 11:55:11;;;;;;;1.80;1.80;;;;;;;;;;5072776;28;20402;-74
2022/04/06 11:57:45;;;;;;;3.90;3.70;;;;;;;;;;5072591;28;20893;-74
2022/04/06 12:00:13;;;;;;;1.00;1.00;;;;;;;;;;5073058;28;20555;-74
2022/04/06 12:02:49;;;;;;;2.17;1.97;;;;;;;;;;5072621;28;20500;-75
2022/04/06 12:05:15;;;;;;;1.10;1.10;;;;;;;;;;5073364;28;20421;-74
2022/04/06 12:07:41;;;;;;;2.67;2.47;;;;;;;;;;5072754;28;20429;-74
2022/04/06 12:10:07;;;;;;;0.90;0.90;;;;;;;;;;5072878;28;20424;-74
2022/04/06 12:12:36;;;;;;;0.80;0.80;;;;;;;;;;5072615;28;20517;-74
2022/04/06 12:15:02;;;;;;;1.20;1.00;;;;;;;;;;5071573;28;20398;-74
2022/04/06 12:17:28;;;;;;;1.80;1.80;;;;;;;;;;5072291;28;20183;-74
2022/04/06 12:19:54;;;;;;;1.63;1.37;;;;;;;;;;5072703;28;20420;-75
2022/04/06 12:22:25;;;;;;;1.23;1.00;;;;;;;;;;5072423;28;20779;-75
2022/04/06 12:24:52;;;;;;;1.17;1.13;;;;;;;;;;5072430;28;20447;-74
2022/04/06 12:27:28;;;;;;;0.60;0.60;;;;;;;;;;5076111;28;20469;-74
2022/04/06 12:30:10;;;;;;;1.58;1.00;;;;;;;;;;5057435;28;20418;-74
2022/04/06 12:32:46;;;;;;;1.10;1.10;;;;;;;;;;5075988;28;20234;-75
2022/04/06 12:35:18;;;;;;;3.70;0.67;;;;;;;;;;5075941;28;20963;-75
2022/04/06 12:37:44;;;;;;;1.50;1.50;;;;;;;;;;5075778;28;20453;-74
2022/04/06 12:40:10;;;;;;;4.03;2.80;;;;;;;;;;5075909;28;20410;-74
2022/04/06 12:42:37;;;;;;;6.20;5.60;;;;;;;;;;5075826;28;20520;-74
2022/04/06 12:45:06;;;;;;;1.30;1.30;;;;;;;;;;5075744;28;20935;-74
2022/04/06 12:47:32;;;;;;;2.00;1.90;;;;;;;;;;5075856;28;20436;-75
2022/04/06 12:50:11;;;;;;;1.23;1.23;;;;;;;;;;5075717;28;20415;-74
2022/04/06 12:52:37;;;;;;;1.57;1.57;;;;;;;;;;5075601;28;20794;-74
2022/04/06 12:55:07;;;;;;;2.77;2.10;;;;;;;;;;5075843;28;20493;-74
2022/04/06 12:57:36;;;;;;;1.33;1.33;;;;;;;;;;5075441;28;20410;-73
2022/04/06 13:00:02;;;;;;;0.90;0.90;;;;;;;;;;5075883;28;20413;-73
2022/04/06 13:02:32;;;;;;;5.23;1.27;;;;;;;;;;5075636;28;20518;-75
2022/04/06 13:05:01;;;;;;;0.40;0.40;;;;;;;;;;5076411;28;20762;-74
2022/04/06 13:07:28;;;;;;;1.13;1.03;;;;;;;;;;5075593;28;20532;-75
2022/04/06 13:09:58;;;;;;;1.27;1.20;;;;;;;;;;5075417;28;20417;-75
2022/04/06 13:12:26;;;;;;;6.67;5.60;;;;;;;;;;5075557;28;20422;-70
2022/04/06 13:14:52;;;;;;;1.37;1.37;;;;;;;;;;5075492;28;20422;-75
2022/04/06 13:17:19;;;;;;;0.90;0.90;;;;;;;;;;5057045;28;20881;-76
2022/04/06 13:19:45;;;;;;;0.97;0.97;;;;;;;;;;5075117;28;20757;-75
2022/04/06 13:22:11;;;;;;;0.70;0.70;;;;;;;;;;5057214;28;20525;-75
2022/04/06 13:24:37;;;;;;;1.00;0.87;;;;;;;;;;5075072;28;20521;-73
2022/04/06 13:27:03;;;;;;;3.57;1.87;;;;;;;;;;5074995;28;20526;-75
2022/04/06 13:29:29;;;;;;;0.93;0.93;;;;;;;;;;5074377;28;20500;-75
2022/04/06 13:31:56;;;;;;;0.70;0.70;;;;;;;;;;5075174;28;20483;-75
2022/04/06 13:34:22;;;;;;;7.10;1.30;;;;;;;;;;5074962;28;20433;-74
2022/04/06 13:36:48;;;;;;;1.30;1.30;;;;;;;;;;5074204;28;20414;-75
2022/04/06 13:39:15;;;;;;;1.70;1.60;;;;;;;;;;5056628;28;20488;-75
2022/04/06 13:41:41;;;;;;;0.53;0.53;;;;;;;;;;5074850;28;20862;-73
2022/04/06 13:44:10;;;;;;;0.50;0.50;;;;;;;;;;5075259;28;20398;-73
2022/04/06 13:46:37;;;;;;;7.50;2.50;;;;;;;;;;5075249;28;20499;-72
2022/04/06 13:49:03;;;;;;;0.77;0.63;;;;;;;;;;5074831;28;20916;-74
2022/04/06 13:51:29;;;;;;;0.50;0.50;;;;;;;;;;5074924;28;20418;-75
2022/04/06 13:53:55;;;;;;;1.27;1.10;;;;;;;;;;5074493;28;20440;-74
2022/04/06 13:56:21;;;;;;;2.70;0.53;;;;;;;;;;5074528;28;20449;-74
2022/04/06 13:58:47;;;;;;;0.70;0.70;;;;;;;;;;5056476;28;20417;-74
2022/04/06 14:01:14;;;;;;;0.50;0.50;;;;;;;;;;5056483;28;20417;-76
2022/04/06 14:03:40;;;;;;;0.57;0.57;;;;;;;;;;5056261;28;20766;-75
2022/04/06 14:06:09;;;;;;;1.13;0.93;;;;;;;;;;5074515;28;20495;-75
2022/04/06 14:08:35;;;;;;;6.53;1.47;;;;;;;;;;5074148;28;20445;-75
2022/04/06 14:11:01;;;;;;;1.10;1.10;;;;;;;;;;5074486;28;20421;-74
2022/04/06 14:13:28;;;;;;;3.57;1.33;;;;;;;;;;5073973;28;20441;-72
2022/04/06 14:15:54;;;;;;;0.60;0.60;;;;;;;;;;5074235;28;20830;-76
2022/04/06 14:18:20;;;;;;;3.60;0.80;;;;;;;;;;5074182;28;20915;-75
2022/04/06 14:20:49;;;;;;;0.70;0.70;;;;;;;;;;5074069;28;20475;-75
2022/04/06 14:23:16;;;;;;;1.83;0.70;;;;;;;;;;5073879;28;20420;-76
2022/04/06 14:25:45;;;;;;;0.63;0.63;;;;;;;;;;5073892;28;20944;-76
2022/04/06 14:28:12;;;;;;;0.93;0.70;;;;;;;;;;5073611;28;20453;-75
2022/04/06 14:30:38;;;;;;;1.40;1.30;;;;;;;;;;5073735;28;20413;-75
2022/04/06 14:33:05;;;;;;;0.90;0.90;;;;;;;;;;5073411;28;20509;-75
2022/04/06 14:35:31;;;;;;;5.10;4.70;;;;;;;;;;5073723;28;20421;-73
2022/04/06 14:37:57;;;;;;;0.80;0.80;;;;;;;;;;5074392;28;20420;-76
2022/04/06 14:40:23;;;;;;;1.63;1.23;;;;;;;;;;5073578;28;20426;-76
2022/04/06 14:42:49;;;;;;;8.20;6.83;;;;;;;;;;5073833;28;20465;-75
2022/04/06 14:45:15;;;;;;;1.17;0.40;;;;;;;;;;5073515;28;20416;-76
2022/04/06 14:47:41;;;;;;;4.07;1.80;;;;;;;;;;5073622;28;20480;-75
2022/04/06 14:50:08;;;;;;;1.27;1.27;;;;;;;;;;5073547;28;20807;-75
2022/04/06 14:52:35;;;;;;;1.37;1.37;;;;;;;;;;5073327;28;20417;-75
2022/04/06 14:55:01;;;;;;;1.40;1.30;;;;;;;;;;5073638;28;20509;-75
2022/04/06 14:57:27;;;;;;;0.80;0.80;;;;;;;;;;5073169;28;20832;-75
2022/04/06 14:59:53;;;;;;;0.97;0.70;;;;;;;;;;5073602;28;20418;-75
2022/04/06 15:02:19;;;;;;;1.53;0.70;;;;;;;;;;5073407;28;20770;-76